Latest Coastal Weather Observations for Yamba

IDN60701

Issued at 3:51 am EST Tuesday 28 June 2022 (issued every 10 minutes, with the page automatically refreshed every 10 minutes)

About coastal observations | Map of coastal stations | Coastal observations for NSW | Marine services | Other Formats
Station Details ID: 058012 Name: YAMBA PILOT STATION Lat: -29.43 Lon: 153.36 Height: 27.4 m
Data from the previous 72 hours. | See also: Recent months at Yamba
Date/Time
EST
Wind Sea
Height
m
Swell Vis
km
Cloud Weather Temp
°C
Press
MSL
hPa
Rain since
9am
mm
Dir  Spd
kts
Gust
kts
Height
m
Period
s
Dir
28/03:30am W 4 6 - - - - - - - 11.0 1024.3 0.0
28/03:00am SW 5 9 - - - - - - - 11.7 1024.1 0.0
28/02:30am SW 8 13 - - - - - - - 12.4 1024.0 0.0
28/02:00am SW 8 14 - - - - - - - 12.7 1024.3 0.0
28/01:30am SSW 8 16 - - - - - - - 12.8 1024.4 0.0
28/01:00am SSW 10 15 - - - - - - - 13.0 1024.6 0.0
28/12:30am SSW 11 21 - - - - - - - 13.2 1024.5 0.0
28/12:00am SSW 9 14 - - - - - - - 13.1 1024.8 0.0
 
Date/Time
EST
Wind Sea
Height
m
Swell Vis
km
Cloud Weather Temp
°C
Press
MSL
hPa
Rain since
9am
mm
Dir  Spd
kts
Gust
kts
Height
m
Period
s
Dir
27/11:30pm SSW 10 21 - - - - - - - 13.4 1024.9 0.0
27/11:00pm SSW 10 19 - - - - - - - 13.5 1025.0 0.0
27/10:30pm SSW 12 19 - - - - - - - 13.7 1025.1 0.0
27/10:00pm SSW 11 17 - - - - - - - 13.9 1024.9 0.0
27/09:30pm SSW 13 23 - - - - - - - 14.5 1024.7 0.0
27/09:00pm SSW 12 17 - - - - - - - 15.0 1024.4 0.0
27/08:30pm S 14 23 - - - - - - - 15.4 1024.1 0.0
27/08:00pm S 12 18 - - - - - - - 15.8 1023.9 0.0
27/07:30pm S 15 23 - - - - - - - 16.6 1023.4 0.0
27/07:00pm S 19 29 - - - - - - - 17.5 1022.8 0.0
27/06:36pm SSE 19 29 - - - - - - - 17.6 1022.7 0.0
27/06:30pm SSE 18 27 - - - - - - - 17.7 1022.7 0.0
27/06:02pm SSE 18 28 - - - - - - - 17.8 1022.3 0.0
27/06:00pm SSE 18 27 - - - - - - - 17.7 1022.2 0.0
27/05:30pm SSE 17 27 - - - - - - - 17.8 1021.8 0.0
27/05:02pm SSE 15 25 - - - - - - - 17.7 1021.7 0.0
27/05:00pm SSE 15 22 - - - - - - - 17.8 1021.7 0.0
27/04:30pm SSE 14 20 - - - - - - - 18.1 1021.4 0.0
27/04:00pm SSE 11 18 - - - - - - - 18.4 1021.0 0.0
27/03:30pm SSE 11 13 - - - - - - - 18.7 1020.7 0.0
27/03:00pm SSE 10 12 - - - - - - - 19.1 1020.3 0.0
27/02:30pm SSE 10 14 - - - - - - - 19.2 1020.7 0.0
27/02:00pm SSE 9 14 - - - - - - - 19.7 1020.5 0.0
27/01:30pm SSE 10 14 - - - - - - - 20.1 1020.6 0.0
27/01:00pm SSE 12 17 - - - - - - - 19.5 1020.9 0.0
27/12:30pm S 12 17 - - - - - - - 19.3 1021.2 0.0
27/12:00pm S 10 17 - - - - - - - 20.0 1021.7 0.0
27/11:30am S 8 15 - - - - - - - 19.7 1022.2 0.0
27/11:00am SSW 6 9 - - - - - - - 18.2 1022.5 0.0
27/10:30am WSW 5 9 - - - - - - - 17.0 1023.0 0.0
27/10:00am WSW 6 14 - - - - - - - 15.5 1023.4 0.0
27/09:30am W 6 9 - - - - - - - 14.3 1022.9 0.0
27/09:00am WSW 6 12 - - - - - - - 12.2 1023.3 0.0
27/08:30am W 7 9 - - - - - - - 11.7 1023.1 0.0
27/08:00am W 6 9 - - - - - - - 11.4 1022.7 0.0
27/07:30am W 7 10 - - - - - - - 11.1 1022.2 0.0
27/07:00am WNW 7 10 - - - - - - - 11.0 1022.3 0.0
27/06:30am W 6 7 - - - - - - - 10.7 1022.5 0.0
27/06:00am WSW 5 8 - - - - - - - 10.8 1022.9 0.0
27/05:30am WSW 5 8 - - - - - - - 11.0 1022.8 0.0
27/05:00am W 5 7 - - - - - - - 11.3 1022.5 0.0
27/04:30am WSW 6 8 - - - - - - - 11.4 1022.4 0.0
27/04:00am W 6 8 - - - - - - - 11.3 1022.4 0.0
27/03:30am WNW 5 7 - - - - - - - 11.2 1022.6 0.0
27/03:00am WNW 5 7 - - - - - - - 11.3 1023.2 0.0
27/02:30am W 5 7 - - - - - - - 11.4 1023.6 0.0
27/02:00am WSW 6 9 - - - - - - - 11.8 1023.6 0.0
27/01:30am WSW 4 6 - - - - - - - 12.3 1023.8 0.0
27/01:00am W 7 9 - - - - - - - 12.9 1023.9 0.0
27/12:30am WNW 6 8 - - - - - - - 13.1 1023.9 0.0
27/12:00am W 6 7 - - - - - - - 13.3 1024.1 0.0
 
Date/Time
EST
Wind Sea
Height
m
Swell Vis
km
Cloud Weather Temp
°C
Press
MSL
hPa
Rain since
9am
mm
Dir  Spd
kts
Gust
kts
Height
m
Period
s
Dir
26/11:30pm WNW 5 7 - - - - - - - 14.4 1024.3 0.0
26/11:00pm WNW 5 7 - - - - - - - 14.8 1024.7 0.0
26/10:30pm WNW 4 5 - - - - - - - 14.7 1024.5 0.0
26/10:00pm WNW 5 6 - - - - - - - 14.7 1024.5 0.0
26/09:30pm W 7 7 - - - - - - - 14.8 1024.6 0.0
26/09:00pm W 5 6 - - - - - - - 14.7 1024.5 0.0
26/08:30pm NW 4 5 - - - - - - - 15.1 1024.4 0.0
26/08:00pm NW 4 5 - - - - - - - 15.9 1024.5 0.0
26/07:30pm WNW 3 5 - - - - - - - 17.2 1024.5 0.0
26/07:00pm ENE 2 4 - - - - - - - 17.5 1024.2 0.0
26/06:30pm ENE 4 5 - - - - - - - 17.7 1024.0 0.0
26/06:00pm E 4 5 - - - - - - - 17.7 1023.7 0.0
26/05:30pm E 4 5 - - - - - - - 17.8 1023.4 0.0
26/05:00pm E 4 6 - - - - - - - 17.8 1023.3 0.0
26/04:30pm E 4 5 - - - - - - - 17.9 1023.3 0.0
26/04:00pm E 4 5 - - - - - - - 18.4 1023.4 0.0
26/03:30pm ESE 4 5 - - - - - - - 18.9 1023.3 0.0
26/03:00pm ESE 4 5 - - - - - - - 19.5 1023.2 0.0
26/02:30pm SE 3 4 - - - - - - - 19.6 1023.4 0.0
26/02:00pm NNE 3 5 - - - - - - - 21.4 1023.5 0.0
26/01:30pm NNW 5 6 - - - - - - - 21.2 1023.5 0.0
26/01:00pm NNW 5 7 - - - - - - - 20.1 1023.8 0.0
26/12:30pm NW 4 6 - - - - - - - 20.8 1024.2 0.0
26/12:00pm W 6 8 - - - - - - - 19.6 1024.7 0.0
26/11:30am W 5 8 - - - - - - - 18.9 1025.1 0.0
26/11:00am W 7 10 - - - - - - - 17.5 1025.2 0.0
26/10:30am W 8 13 - - - - - - - 16.1 1025.5 0.0
26/10:00am W 7 12 - - - - - - - 15.0 1025.6 0.0
26/09:30am W 7 11 - - - - - - - 14.1 1025.7 0.0
26/09:00am W 8 10 - - - - - - - 13.0 1025.7 0.0
26/08:30am W 7 9 - - - - - - - 11.4 1025.5 0.0
26/08:00am W 7 11 - - - - - - - 10.3 1025.5 0.0
26/07:30am W 7 11 - - - - - - - 9.9 1025.6 0.0
26/07:00am W 7 10 - - - - - - - 9.6 1025.3 0.0
26/06:30am W 7 11 - - - - - - - 9.5 1025.0 0.0
26/06:00am W 7 11 - - - - - - - 9.5 1024.8 0.0
26/05:30am W 7 9 - - - - - - - 9.6 1024.3 0.0
26/05:00am W 7 10 - - - - - - - 9.6 1024.0 0.0
26/04:30am W 7 9 - - - - - - - 9.7 1023.8 0.0
26/04:00am W 7 9 - - - - - - - 9.8 1023.7 0.0
26/03:30am W 7 11 - - - - - - - 9.9 1023.7 0.0
26/03:00am WSW 7 10 - - - - - - - 9.9 1023.8 0.0
26/02:30am WSW 7 9 - - - - - - - 10.2 1023.8 0.0
26/02:00am WSW 5 7 - - - - - - - 10.5 1023.9 0.0
26/01:30am WSW 6 9 - - - - - - - 10.8 1023.9 0.0
26/01:00am WSW 6 9 - - - - - - - 11.1 1023.9 0.0
26/12:30am WSW 6 9 - - - - - - - 11.4 1023.9 0.0
26/12:00am SW 7 9 - - - - - - - 11.8 1024.0 0.0
 
Date/Time
EST
Wind Sea
Height
m
Swell Vis
km
Cloud Weather Temp
°C
Press
MSL
hPa
Rain since
9am
mm
Dir  Spd
kts
Gust
kts
Height
m
Period
s
Dir
25/11:30pm SW 8 9 - - - - - - - 12.4 1024.3 0.0
25/11:00pm WSW 4 6 - - - - - - - 12.7 1024.3 0.0
25/10:30pm SW 5 7 - - - - - - - 12.9 1024.4 0.0
25/10:00pm SW 5 7 - - - - - - - 13.2 1024.4 0.0
25/09:30pm SW 5 6 - - - - - - - 13.7 1024.3 0.0
25/09:00pm SW 4 6 - - - - - - - 14.6 1024.3 0.0
25/08:30pm SW 5 7 - - - - - - - 15.3 1024.0 0.0
25/08:00pm SW 5 8 - - - - - - - 15.5 1024.0 0.0
25/07:30pm SSW 7 8 - - - - - - - 15.1 1023.7 0.0
25/07:00pm SSW 7 8 - - - - - - - 16.4 1023.3 0.0
25/06:30pm S 6 6 - - - - - - - 16.7 1023.0 0.0
25/06:00pm SSW 5 6 - - - - - - - 16.4 1022.6 0.0
25/05:30pm SSW 5 6 - - - - - - - 16.6 1022.2 0.0
25/05:00pm SSW 4 5 - - - - - - - 16.9 1022.1 0.0
25/04:30pm SSW 4 5 - - - - - - - 17.9 1021.9 0.0
25/04:00pm SSE 5 7 - - - - - - - 18.6 1021.9 0.0
25/03:30pm SSE 6 9 - - - - - - - 19.1 1021.7 0.0
25/03:00pm SSE 7 10 - - - - - - - 19.6 1021.4 0.0
25/02:30pm SSE 8 10 - - - - - - - 19.7 1021.3 0.0
25/02:00pm SSE 8 12 - - - - - - - 19.5 1021.3 0.0
25/01:30pm S 5 8 - - - - - - - 20.0 1021.6 0.0
25/01:00pm SSW 6 9 - - - - - - - 19.5 1021.7 0.0
25/12:30pm SW 6 9 - - - - - - - 18.9 1022.0 0.0
25/12:00pm SSW 6 10 - - - - - - - 18.9 1022.2 0.0
25/11:30am SW 5 8 - - - - - - - 18.7 1022.5 0.0
25/11:00am WSW 5 8 - - - - - - - 17.5 1022.9 0.0
25/10:30am WSW 5 10 - - - - - - - 16.3 1022.9 0.0
25/10:00am WSW 6 10 - - - - - - - 15.1 1023.2 0.0
25/09:30am W 6 10 - - - - - - - 13.9 1023.3 0.0
25/09:00am WSW 6 10 - - - - - - - 12.8 1023.1 0.0
25/08:30am WSW 6 9 - - - - - - - 11.2 1022.9 0.0
25/08:00am WSW 6 10 - - - - - - - 10.0 1022.5 0.0
25/07:30am WSW 6 9 - - - - - - - 8.9 1022.3 0.0
25/07:00am W 7 11 - - - - - - - 8.4 1021.8 0.0
25/06:30am W 7 10 - - - - - - - 8.3 1021.6 0.0
25/06:00am W 6 9 - - - - - - - 8.5 1021.2 0.0
25/05:30am W 6 9 - - - - - - - 8.6 1020.8 0.0
25/05:00am W 6 10 - - - - - - - 8.8 1020.4 0.0
25/04:30am WSW 6 10 - - - - - - - 9.0 1020.1 0.0
25/04:00am WSW 7 11 - - - - - - - 8.9 1020.0 0.0

Other formats

Comma delimited format used in spreadsheet applications
http://www.bom.gov.au/fwo/IDN60701/IDN60701.94589.axf

JavaScript Object Notation format (JSON) in row-major order
http://www.bom.gov.au/fwo/IDN60701/IDN60701.94589.json

Data quality

Most of these data are generated automatically and are frequently updated. Quality checks on data are not normally performed. It is possible for incorrect values to appear. Refer to information at About Latest Weather Observations and please check the disclaimer before using these data.